Time;durP1;ratioP1;P1;durP2;ratioP2;P2;SDS_P1;SDS_P2;PMS_P1;PMS_P2;Temp;Humidity;BMP_temperature;BMP_pressure;BME280_temperature;BME280_humidity;BME280_pressure;Samples;Min_cycle;Max_cycle;Signal;HPM_P1;HPM_P2
2023/01/27 00:00:51;;;;;;;3.23;0.90;;;21.30;38.30;;;;;;5062170;27;87770;-55
2023/01/27 00:03:19;;;;;;;1.80;0.50;;;21.30;38.50;;;;;;5062476;27;87350;-55
2023/01/27 00:05:47;;;;;;;1.47;0.53;;;21.20;38.60;;;;;;5062982;27;87101;-55
2023/01/27 00:08:15;;;;;;;0.80;0.80;;;21.20;38.70;;;;;;5061296;27;88913;-55
2023/01/27 00:10:43;;;;;;;1.37;0.50;;;21.10;38.80;;;;;;5062868;27;88772;-55
2023/01/27 00:13:26;;;;;;;1.90;0.93;;;21.00;39.40;;;;;;5062615;27;87102;-55
2023/01/27 00:15:56;;;;;;;5.20;1.30;;;21.00;38.80;;;;;;5061611;27;87170;-56
2023/01/27 00:18:24;;;;;;;3.10;0.70;;;20.90;39.60;;;;;;5062526;27;89246;-55
2023/01/27 00:26:23;;;;;;;5.63;0.63;;;20.70;38.80;;;;;;5062884;27;86409;-55
2023/01/27 00:28:51;;;;;;;2.00;0.67;;;20.70;38.90;;;;;;5061966;27;88138;-56
2023/01/27 00:34:08;;;;;;;0.30;0.30;;;20.60;38.80;;;;;;5062260;27;88021;-55
2023/01/27 00:36:37;;;;;;;1.40;0.33;;;20.50;38.80;;;;;;5061406;27;87153;-55
2023/01/27 00:39:05;;;;;;;2.23;0.47;;;20.40;38.80;;;;;;5062432;27;89051;-54
2023/01/27 00:41:33;;;;;;;4.00;0.70;;;20.40;38.80;;;;;;5061586;27;87972;-54
2023/01/27 00:44:01;;;;;;;5.73;0.90;;;20.30;39.40;;;;;;5062324;27;87053;-55
2023/01/27 00:46:31;;;;;;;1.33;0.67;;;20.30;38.80;;;;;;5061837;27;86974;-55
2023/01/27 00:48:59;;;;;;;0.30;0.30;;;20.20;38.70;;;;;;5061792;27;88231;-55
2023/01/27 00:51:27;;;;;;;0.57;0.57;;;20.20;39.40;;;;;;5061784;27;87853;-55
2023/01/27 00:53:55;;;;;;;2.33;0.57;;;20.10;38.70;;;;;;5062418;27;86985;-55
2023/01/27 00:56:23;;;;;;;4.63;0.73;;;20.10;38.70;;;;;;5062822;27;86982;-55
2023/01/27 00:58:51;;;;;;;2.63;1.57;;;20.10;38.70;;;;;;5055138;27;90432;-56
2023/01/27 01:01:18;;;;;;;0.50;0.50;;;20.10;38.70;;;;;;5060935;27;88847;-55
2023/01/27 01:03:48;;;;;;;3.30;1.10;;;20.10;38.70;;;;;;5060895;27;87022;-55
2023/01/27 01:06:16;;;;;;;1.27;1.17;;;20.10;38.70;;;;;;5062297;27;87037;-55
2023/01/27 01:08:44;;;;;;;2.77;0.77;;;20.10;38.70;;;;;;5060665;27;88218;-55
2023/01/27 01:11:14;;;;;;;1.50;0.50;;;20.10;38.70;;;;;;5061447;27;88080;-55
2023/01/27 01:13:42;;;;;;;0.50;0.50;;;20.10;39.30;;;;;;5061481;27;87016;-55
2023/01/27 01:16:11;;;;;;;3.40;0.73;;;20.00;38.60;;;;;;5061561;27;86319;-55
2023/01/27 01:18:39;;;;;;;2.93;0.80;;;20.00;38.60;;;;;;5061328;27;88139;-55
2023/01/27 01:21:09;;;;;;;0.97;0.77;;;20.00;38.60;;;;;;5062006;27;87985;-54
2023/01/27 01:23:38;;;;;;;0.30;0.20;;;19.90;38.50;;;;;;5061427;27;88035;-55
2023/01/27 01:26:06;;;;;;;2.53;0.40;;;19.90;38.50;;;;;;5061392;27;87053;-55
2023/01/27 01:28:35;;;;;;;1.30;0.40;;;19.90;38.50;;;;;;5061307;27;87837;-55
2023/01/27 01:31:06;;;;;;;1.83;0.53;;;19.90;38.50;;;;;;5061321;27;88020;-55
2023/01/27 01:33:34;;;;;;;1.90;0.40;;;19.90;39.20;;;;;;5060508;27;86970;-55
2023/01/27 01:36:06;;;;;;;0.37;0.37;;;19.90;38.50;;;;;;5061375;27;86988;-54
2023/01/27 01:38:35;;;;;;;0.70;0.53;;;19.80;38.50;;;;;;5061337;27;87077;-55
2023/01/27 01:41:04;;;;;;;0.73;0.70;;;19.80;38.50;;;;;;5061661;27;87815;-54
2023/01/27 01:43:32;;;;;;;1.40;0.80;;;19.80;38.60;;;;;;5060838;27;86996;-55
2023/01/27 01:46:00;;;;;;;0.70;0.30;;;19.70;38.50;;;;;;5061031;27;87038;-55
2023/01/27 01:48:33;;;;;;;2.57;0.57;;;19.70;38.50;;;;;;5059419;27;90077;-55
2023/01/27 01:51:04;;;;;;;0.80;0.80;;;19.70;38.50;;;;;;5060440;27;88861;-55
2023/01/27 01:53:35;;;;;;;0.43;0.40;;;19.60;38.40;;;;;;5059773;27;87059;-55
2023/01/27 01:56:07;;;;;;;1.13;0.50;;;19.60;38.50;;;;;;5058776;27;87156;-56
2023/01/27 01:58:35;;;;;;;4.00;0.70;;;19.60;38.50;;;;;;5058243;27;88162;-55
2023/01/27 02:01:04;;;;;;;1.47;0.23;;;19.60;38.50;;;;;;5057491;27;87863;-54
2023/01/27 02:03:32;;;;;;;1.60;0.70;;;19.60;38.50;;;;;;5060732;27;87105;-54
2023/01/27 02:06:00;;;;;;;0.80;0.30;;;19.60;38.50;;;;;;5061220;27;86342;-54
2023/01/27 02:08:29;;;;;;;0.73;0.63;;;19.60;38.50;;;;;;5060230;27;88141;-54
2023/01/27 02:10:59;;;;;;;0.30;0.30;;;19.70;38.50;;;;;;5060545;27;87969;-54
2023/01/27 02:13:27;;;;;;;1.27;0.60;;;19.70;38.40;;;;;;5059449;27;88056;-55
2023/01/27 02:15:55;;;;;;;1.13;0.33;;;19.80;38.40;;;;;;5060865;27;87137;-54
2023/01/27 02:18:23;;;;;;;0.93;0.47;;;19.80;38.30;;;;;;5060810;27;88276;-55
2023/01/27 02:20:52;;;;;;;2.70;0.40;;;19.80;38.80;;;;;;5059711;27;87617;-56
2023/01/27 02:23:32;;;;;;;0.80;0.40;;;19.80;38.20;;;;;;5060669;27;86993;-54
2023/01/27 02:26:03;;;;;;;0.73;0.63;;;19.80;38.20;;;;;;5040399;28;87143;-54
2023/01/27 02:28:32;;;;;;;1.80;0.20;;;19.80;38.00;;;;;;5045037;27;88320;-55
2023/01/27 02:30:59;;;;;;;0.23;0.23;;;19.80;38.00;;;;;;5057693;27;87931;-55
2023/01/27 02:33:28;;;;;;;1.33;0.60;;;19.80;38.00;;;;;;5059815;27;87411;-54
2023/01/27 02:35:58;;;;;;;3.53;0.70;;;19.80;38.00;;;;;;5059830;27;87130;-55
2023/01/27 02:38:27;;;;;;;0.60;0.60;;;19.70;37.90;;;;;;5060746;27;88916;-54
2023/01/27 02:40:56;;;;;;;0.50;0.50;;;19.70;37.90;;;;;;5060123;27;89479;-55
2023/01/27 02:43:26;;;;;;;0.87;0.87;;;19.60;37.80;;;;;;5059976;27;87049;-55
2023/01/27 02:45:54;;;;;;;0.70;0.70;;;19.50;37.90;;;;;;5059407;27;87533;-55
2023/01/27 02:48:22;;;;;;;3.97;0.50;;;19.50;37.90;;;;;;5059859;27;88084;-54
2023/01/27 02:50:50;;;;;;;0.50;0.50;;;19.50;37.90;;;;;;5059867;27;88884;-54
2023/01/27 02:53:18;;;;;;;1.07;0.30;;;19.50;37.80;;;;;;5059708;27;87094;-54
2023/01/27 02:55:46;;;;;;;1.17;0.60;;;19.70;38.00;;;;;;5059753;27;86389;-55
2023/01/27 02:58:15;;;;;;;1.30;0.60;;;19.80;37.90;;;;;;5059240;27;88161;-55
2023/01/27 03:00:44;;;;;;;0.40;0.40;;;19.90;37.80;;;;;;5061064;27;88726;-55
2023/01/27 03:03:12;;;;;;;4.23;0.87;;;20.00;37.70;;;;;;5062635;27;87989;-55
2023/01/27 03:05:40;;;;;;;0.70;0.70;;;20.10;37.70;;;;;;5055194;27;86982;-57
2023/01/27 03:08:08;;;;;;;0.73;0.50;;;20.10;37.60;;;;;;5063903;27;87954;-54
2023/01/27 03:10:36;;;;;;;0.70;0.57;;;20.20;37.60;;;;;;5063319;27;86998;-55
2023/01/27 03:13:04;;;;;;;0.47;0.47;;;20.20;38.20;;;;;;5062962;27;87075;-54
2023/01/27 03:18:21;;;;;;;2.17;0.83;;;20.20;37.60;;;;;;5061448;27;89139;-55
2023/01/27 03:20:49;;;;;;;0.40;0.40;;;20.20;37.50;;;;;;5062837;27;86631;-55
2023/01/27 03:23:19;;;;;;;3.30;0.70;;;20.10;37.50;;;;;;5062997;27;87173;-55
2023/01/27 03:25:47;;;;;;;1.07;0.60;;;20.00;37.50;;;;;;5063625;27;87113;-55
2023/01/27 03:28:15;;;;;;;0.50;0.50;;;20.00;37.50;;;;;;5062257;27;88748;-55
2023/01/27 03:30:43;;;;;;;1.70;0.60;;;19.90;37.40;;;;;;5061973;27;88723;-55
2023/01/27 03:33:11;;;;;;;0.73;0.60;;;19.90;37.50;;;;;;5062778;27;87083;-55
2023/01/27 03:35:47;;;;;;;0.37;0.37;;;19.80;37.40;;;;;;5062423;27;87030;-55
2023/01/27 03:46:34;;;;;;;0.73;0.60;;;19.70;37.40;;;;;;5062606;27;86242;-55
2023/01/27 03:49:02;;;;;;;1.17;1.00;;;19.70;37.40;;;;;;5061302;27;89266;-55
2023/01/27 03:51:31;;;;;;;0.67;0.53;;;19.70;37.40;;;;;;5060812;27;87687;-56
2023/01/27 03:54:00;;;;;;;1.63;0.90;;;19.60;37.30;;;;;;5062627;27;88070;-55
2023/01/27 03:56:27;;;;;;;0.77;0.77;;;19.50;37.30;;;;;;5063119;27;87098;-55
2023/01/27 03:58:56;;;;;;;4.00;0.97;;;19.40;37.30;;;;;;5062332;27;88089;-54
2023/01/27 04:01:24;;;;;;;2.40;1.00;;;19.30;37.40;;;;;;5062610;27;87861;-55
2023/01/27 04:06:52;;;;;;;2.30;0.93;;;19.40;37.40;;;;;;5053919;27;87523;-55
2023/01/27 04:09:20;;;;;;;0.50;0.50;;;19.50;37.40;;;;;;5061436;27;89272;-55
2023/01/27 04:12:00;;;;;;;2.97;1.00;;;19.60;37.40;;;;;;5062691;27;87892;-55
2023/01/27 04:14:29;;;;;;;0.63;0.63;;;19.70;37.30;;;;;;5062351;27;87522;-55
2023/01/27 04:16:58;;;;;;;2.37;1.07;;;19.80;37.30;;;;;;5062574;27;87095;-55
2023/01/27 04:19:27;;;;;;;1.53;0.90;;;19.90;37.30;;;;;;5061950;27;90147;-55
2023/01/27 04:21:56;;;;;;;0.97;0.40;;;20.00;37.20;;;;;;5062333;27;89937;-56
2023/01/27 04:24:24;;;;;;;1.53;1.13;;;20.10;37.10;;;;;;5062583;27;87027;-55
2023/01/27 04:26:54;;;;;;;2.03;0.90;;;20.20;37.10;;;;;;5062845;27;86987;-55
2023/01/27 04:29:23;;;;;;;1.33;0.60;;;20.20;37.00;;;;;;5062454;27;87924;-55
2023/01/27 04:31:51;;;;;;;3.50;0.83;;;20.20;37.00;;;;;;5062422;27;87925;-55
2023/01/27 04:34:19;;;;;;;1.33;0.77;;;20.20;36.90;;;;;;5062102;27;87043;-55
2023/01/27 04:36:48;;;;;;;1.70;0.90;;;20.20;36.90;;;;;;5059226;27;87227;-55
2023/01/27 04:39:17;;;;;;;2.43;0.83;;;20.10;36.90;;;;;;5061239;27;88313;-56
2023/01/27 04:41:45;;;;;;;1.40;1.03;;;20.00;36.80;;;;;;5061428;27;87660;-55
2023/01/27 04:44:13;;;;;;;1.20;0.77;;;20.00;37.50;;;;;;5061092;27;88025;-55
2023/01/27 04:46:41;;;;;;;1.43;1.30;;;19.90;36.80;;;;;;5061472;27;87057;-56
2023/01/27 04:49:09;;;;;;;0.90;0.80;;;19.80;36.80;;;;;;5061136;27;88234;-55
2023/01/27 04:51:38;;;;;;;0.97;0.90;;;19.70;36.70;;;;;;5060692;27;87901;-55
2023/01/27 04:54:06;;;;;;;3.07;1.60;;;19.70;36.80;;;;;;5060849;27;87510;-55
2023/01/27 04:56:37;;;;;;;1.53;0.97;;;19.60;36.80;;;;;;5061501;27;87040;-55
2023/01/27 04:59:06;;;;;;;1.07;0.80;;;19.50;36.70;;;;;;5061225;27;87908;-55
2023/01/27 05:01:34;;;;;;;1.60;1.00;;;19.50;36.70;;;;;;5061042;27;87689;-55
2023/01/27 05:04:02;;;;;;;0.87;0.63;;;19.60;36.80;;;;;;5060608;27;87110;-55
2023/01/27 05:06:31;;;;;;;1.30;0.80;;;19.60;36.80;;;;;;5060951;27;87064;-57
2023/01/27 05:09:00;;;;;;;0.87;0.87;;;19.60;36.70;;;;;;5060964;27;89208;-55
2023/01/27 05:11:28;;;;;;;0.93;0.80;;;19.70;36.70;;;;;;5061134;27;88797;-55
2023/01/27 05:13:57;;;;;;;1.30;1.03;;;19.80;36.70;;;;;;5059125;27;87369;-55
2023/01/27 05:16:26;;;;;;;0.70;0.70;;;20.00;36.70;;;;;;5058749;27;87483;-55
2023/01/27 05:18:55;;;;;;;1.80;0.60;;;20.10;36.50;;;;;;5059299;27;89254;-56
2023/01/27 05:21:24;;;;;;;0.90;0.60;;;20.20;36.50;;;;;;5060180;27;89040;-55
2023/01/27 05:23:52;;;;;;;0.93;0.60;;;20.30;36.40;;;;;;5060613;27;87420;-55
2023/01/27 05:26:21;;;;;;;1.07;0.70;;;20.30;36.40;;;;;;5058972;27;86273;-55
2023/01/27 05:28:49;;;;;;;0.87;0.70;;;20.30;36.40;;;;;;5061539;27;88290;-55
2023/01/27 05:31:19;;;;;;;1.17;0.70;;;20.40;36.40;;;;;;5060842;27;88912;-56
2023/01/27 05:33:48;;;;;;;0.40;0.40;;;20.40;36.40;;;;;;5049971;27;88021;-55
2023/01/27 05:36:17;;;;;;;0.60;0.60;;;20.40;36.40;;;;;;5061612;27;86927;-55
2023/01/27 05:38:45;;;;;;;0.47;0.30;;;20.60;36.50;;;;;;5061137;27;88242;-55
2023/01/27 05:41:13;;;;;;;0.63;0.53;;;20.40;36.30;;;;;;5061850;27;87753;-55
2023/01/27 05:43:42;;;;;;;0.63;0.53;;;20.30;36.20;;;;;;5061403;27;87152;-55
2023/01/27 05:46:11;;;;;;;0.57;0.57;;;20.30;36.30;;;;;;5060879;27;87511;-55
2023/01/27 05:48:42;;;;;;;0.50;0.50;;;20.20;36.20;;;;;;5061139;27;88385;-55
2023/01/27 05:51:10;;;;;;;0.77;0.60;;;20.20;36.20;;;;;;5062241;27;87686;-55
2023/01/27 05:53:41;;;;;;;0.77;0.30;;;20.20;36.20;;;;;;5061710;27;88742;-55
2023/01/27 05:56:10;;;;;;;0.60;0.60;;;20.10;36.10;;;;;;5060714;27;86934;-55
2023/01/27 05:58:38;;;;;;;0.63;0.63;;;20.10;36.10;;;;;;5060121;27;88174;-55
2023/01/27 06:01:07;;;;;;;0.50;0.50;;;20.10;36.10;;;;;;5061541;27;88530;-55
2023/01/27 06:03:35;;;;;;;0.40;0.40;;;20.00;36.00;;;;;;5061302;27;87090;-55
2023/01/27 06:06:05;;;;;;;0.37;0.37;;;19.90;36.00;;;;;;5061217;27;87089;-55
2023/01/27 06:08:33;;;;;;;0.50;0.50;;;19.90;36.10;;;;;;5061022;27;87086;-55
2023/01/27 06:11:01;;;;;;;0.80;0.70;;;19.90;36.10;;;;;;5060675;27;87938;-55
2023/01/27 06:13:30;;;;;;;1.23;0.60;;;19.80;36.00;;;;;;5061863;27;87869;-55
2023/01/27 06:15:58;;;;;;;0.57;0.57;;;19.80;36.00;;;;;;5061105;27;87356;-55
2023/01/27 06:18:26;;;;;;;0.30;0.30;;;19.80;36.00;;;;;;5059439;27;89179;-55
2023/01/27 06:20:57;;;;;;;0.60;0.60;;;19.80;36.00;;;;;;5060440;27;87872;-52
2023/01/27 06:23:27;;;;;;;0.40;0.40;;;19.80;36.20;;;;;;5060171;27;87836;-53
2023/01/27 06:25:55;;;;;;;0.30;0.30;;;19.80;36.30;;;;;;5060202;27;87171;-52
2023/01/27 06:28:23;;;;;;;0.40;0.40;;;19.90;36.40;;;;;;5059933;27;89497;-52
2023/01/27 06:30:56;;;;;;;0.50;0.40;;;19.90;36.50;;;;;;5059010;27;87780;-52
2023/01/27 06:33:24;;;;;;;0.73;0.50;;;19.90;36.60;;;;;;5059474;27;87185;-52
2023/01/27 06:35:52;;;;;;;0.30;0.30;;;19.90;36.70;;;;;;5059041;27;88159;-53
2023/01/27 06:38:20;;;;;;;1.80;0.40;;;19.90;36.80;;;;;;5059251;27;89446;-53
2023/01/27 06:40:50;;;;;;;1.70;0.60;;;20.00;37.00;;;;;;5060235;27;88965;-51
2023/01/27 06:43:18;;;;;;;0.53;0.53;;;20.00;37.10;;;;;;5060331;27;87007;-51
2023/01/27 06:45:46;;;;;;;0.20;0.20;;;20.10;37.20;;;;;;5060335;27;87044;-51
2023/01/27 06:48:14;;;;;;;0.47;0.30;;;20.20;37.30;;;;;;5059190;27;89040;-52
2023/01/27 06:50:42;;;;;;;1.03;0.43;;;20.30;37.30;;;;;;5059463;27;89259;-51
2023/01/27 06:53:10;;;;;;;0.40;0.40;;;20.50;37.40;;;;;;5060475;27;87019;-51
2023/01/27 06:55:40;;;;;;;0.30;0.30;;;20.70;37.40;;;;;;5060312;27;87063;-51
2023/01/27 06:58:10;;;;;;;0.33;0.33;;;20.90;37.40;;;;;;5059372;27;88908;-50
2023/01/27 07:00:39;;;;;;;0.30;0.30;;;21.10;37.40;;;;;;5059466;27;87786;-51
2023/01/27 07:03:07;;;;;;;0.97;0.40;;;21.30;37.40;;;;;;5060242;27;87545;-52
2023/01/27 07:05:35;;;;;;;0.27;0.27;;;21.60;37.40;;;;;;5060361;27;86295;-51
2023/01/27 07:08:03;;;;;;;0.20;0.20;;;21.80;37.40;;;;;;5057928;27;88247;-50
2023/01/27 07:10:31;;;;;;;0.20;0.20;;;22.00;37.40;;;;;;5058134;27;87843;-49
2023/01/27 07:13:06;;;;;;;1.03;0.40;;;22.10;37.40;;;;;;5058585;27;88081;-49
2023/01/27 07:15:35;;;;;;;0.30;0.30;;;22.20;37.40;;;;;;5057885;27;87590;-51
2023/01/27 07:18:04;;;;;;;0.37;0.37;;;22.20;37.40;;;;;;5058863;27;88041;-50
2023/01/27 07:20:32;;;;;;;0.70;0.40;;;22.30;37.60;;;;;;5059062;27;89068;-49
2023/01/27 07:23:00;;;;;;;0.50;0.50;;;22.30;37.80;;;;;;5059360;27;87068;-50
2023/01/27 07:25:29;;;;;;;0.23;0.23;;;22.30;37.90;;;;;;5057805;27;87011;-50
2023/01/27 07:27:57;;;;;;;1.07;0.30;;;22.30;38.10;;;;;;5059572;27;89158;-49
2023/01/27 07:30:25;;;;;;;0.70;0.50;;;22.30;38.20;;;;;;5059016;27;88766;-47
2023/01/27 07:32:55;;;;;;;0.73;0.33;;;22.20;38.30;;;;;;5058675;27;87132;-48
2023/01/27 07:35:23;;;;;;;0.70;0.57;;;22.20;38.40;;;;;;5058031;27;86987;-48
2023/01/27 07:37:51;;;;;;;1.07;0.30;;;22.20;38.60;;;;;;5057995;27;90200;-49
2023/01/27 07:40:19;;;;;;;1.13;0.40;;;22.10;38.60;;;;;;5058503;27;90623;-48
2023/01/27 07:42:47;;;;;;;5.93;0.60;;;22.10;38.70;;;;;;5044895;27;87054;-49
2023/01/27 07:45:16;;;;;;;0.20;0.20;;;22.10;38.80;;;;;;5059805;27;87089;-48
2023/01/27 07:47:44;;;;;;;0.60;0.30;;;22.10;38.90;;;;;;5060234;27;88402;-48
2023/01/27 07:50:13;;;;;;;0.60;0.60;;;22.00;38.90;;;;;;5062439;27;88878;-50
2023/01/27 07:52:42;;;;;;;2.33;0.50;;;22.00;39.10;;;;;;5062051;27;86994;-48
2023/01/27 07:55:10;;;;;;;0.80;0.70;;;21.90;39.10;;;;;;5062564;27;87615;-49
2023/01/27 07:57:38;;;;;;;0.73;0.60;;;21.90;39.20;;;;;;5060253;27;88013;-48
2023/01/27 08:00:08;;;;;;;0.60;0.60;;;21.80;39.30;;;;;;5061362;27;90735;-48
2023/01/27 08:02:36;;;;;;;0.50;0.50;;;21.80;39.40;;;;;;5059151;27;89458;-48
2023/01/27 08:05:04;;;;;;;0.57;0.47;;;21.80;39.60;;;;;;5061647;27;87052;-48
2023/01/27 08:07:33;;;;;;;0.43;0.43;;;21.70;39.60;;;;;;5060246;27;89316;-48
2023/01/27 08:10:01;;;;;;;0.43;0.43;;;21.70;39.80;;;;;;5062051;27;89265;-49
2023/01/27 08:12:30;;;;;;;1.90;0.40;;;21.70;39.90;;;;;;5061176;27;88744;-46
2023/01/27 08:14:58;;;;;;;1.80;0.30;;;21.70;40.00;;;;;;5062024;27;87022;-45
2023/01/27 08:17:26;;;;;;;0.77;0.53;;;22.30;40.60;;;;;;5053738;27;89141;-49
2023/01/27 08:19:54;;;;;;;1.17;0.50;;;21.60;40.10;;;;;;5061624;27;87431;-48
2023/01/27 08:22:22;;;;;;;0.30;0.30;;;21.60;40.20;;;;;;5062769;27;86973;-46
2023/01/27 08:24:51;;;;;;;0.30;0.30;;;21.60;40.20;;;;;;5062351;27;86971;-46
2023/01/27 08:27:19;;;;;;;0.37;0.30;;;21.60;40.30;;;;;;5061242;27;89311;-46
2023/01/27 08:29:47;;;;;;;0.40;0.40;;;21.60;40.30;;;;;;5062647;27;88610;-46
2023/01/27 08:32:15;;;;;;;0.23;0.23;;;21.50;40.20;;;;;;5063056;27;86928;-46
2023/01/27 08:34:43;;;;;;;0.30;0.30;;;21.50;40.30;;;;;;5062400;27;88744;-46
2023/01/27 08:37:11;;;;;;;0.40;0.40;;;21.50;40.30;;;;;;5062277;27;89124;-46
2023/01/27 08:39:39;;;;;;;0.30;0.30;;;21.50;40.30;;;;;;5062124;27;87862;-46
2023/01/27 08:42:09;;;;;;;0.37;0.37;;;21.50;40.40;;;;;;5062163;27;87150;-45
2023/01/27 08:44:37;;;;;;;0.47;0.37;;;21.40;40.30;;;;;;5062671;27;86929;-47
2023/01/27 08:47:05;;;;;;;0.40;0.40;;;21.40;40.30;;;;;;5061844;27;90622;-45
2023/01/27 08:49:33;;;;;;;0.40;0.30;;;21.40;40.40;;;;;;5062165;27;87753;-45
2023/01/27 08:52:01;;;;;;;0.30;0.30;;;21.30;40.30;;;;;;5061723;27;88000;-46
2023/01/27 08:54:29;;;;;;;1.17;0.30;;;21.30;40.30;;;;;;5061943;27;87044;-46
2023/01/27 08:56:57;;;;;;;0.30;0.30;;;21.30;40.30;;;;;;5061922;27;88257;-45
2023/01/27 08:59:27;;;;;;;0.30;0.30;;;21.30;40.30;;;;;;5061814;27;86968;-46
2023/01/27 09:01:55;;;;;;;0.30;0.30;;;21.30;40.30;;;;;;5062546;27;87010;-46
2023/01/27 09:04:23;;;;;;;0.60;0.60;;;21.20;40.20;;;;;;5062190;27;86924;-46
2023/01/27 09:06:52;;;;;;;0.30;0.30;;;21.20;40.20;;;;;;5062027;27;87007;-45
2023/01/27 09:09:21;;;;;;;0.30;0.30;;;21.20;40.30;;;;;;5061591;27;87731;-45
2023/01/27 09:11:49;;;;;;;0.30;0.30;;;21.20;40.20;;;;;;5061795;27;87103;-46
2023/01/27 09:14:17;;;;;;;0.40;0.30;;;21.20;40.20;;;;;;5060739;27;87071;-46
2023/01/27 09:16:47;;;;;;;0.70;0.47;;;21.20;40.20;;;;;;5061022;27;89074;-48
2023/01/27 09:19:16;;;;;;;0.30;0.30;;;21.10;40.10;;;;;;5061473;27;88143;-46
2023/01/27 09:21:44;;;;;;;0.20;0.20;;;21.20;40.20;;;;;;5061436;27;88044;-46
2023/01/27 09:24:14;;;;;;;0.43;0.43;;;21.10;40.10;;;;;;5061191;27;87092;-46
2023/01/27 09:26:42;;;;;;;0.20;0.20;;;21.10;40.10;;;;;;5061343;27;88118;-46
2023/01/27 09:29:10;;;;;;;0.20;0.20;;;21.10;40.10;;;;;;5061165;27;88990;-46
2023/01/27 09:31:38;;;;;;;0.40;0.40;;;21.10;40.00;;;;;;5061200;27;86947;-46
2023/01/27 09:34:07;;;;;;;0.67;0.20;;;21.10;40.00;;;;;;5061478;27;86275;-45
2023/01/27 09:36:38;;;;;;;1.13;0.30;;;21.10;40.00;;;;;;5061479;27;86906;-46
2023/01/27 09:39:08;;;;;;;0.20;0.20;;;21.10;40.00;;;;;;5061143;27;89135;-46
2023/01/27 09:41:54;;;;;;;2.37;0.73;;;21.10;40.00;;;;;;5060584;27;87936;-46
2023/01/27 09:44:44;;;;;;;0.37;0.37;;;21.00;40.00;;;;;;5061163;27;86996;-48
2023/01/27 09:47:24;;;;;;;0.30;0.30;;;21.00;40.00;;;;;;5058449;27;88248;-48
2023/01/27 09:50:01;;;;;;;0.53;0.40;;;21.00;39.90;;;;;;5061036;27;89111;-47
2023/01/27 09:52:41;;;;;;;0.30;0.30;;;21.00;40.60;;;;;;5061107;27;87000;-48
2023/01/27 09:55:17;;;;;;;0.20;0.20;;;20.90;39.80;;;;;;5061282;27;86903;-45
2023/01/27 09:57:48;;;;;;;0.30;0.30;;;21.00;39.90;;;;;;5061705;27;88759;-46
2023/01/27 10:00:26;;;;;;;0.30;0.30;;;20.90;39.80;;;;;;5061611;27;88945;-46
2023/01/27 10:03:18;;;;;;;3.13;0.47;;;20.90;39.80;;;;;;5061138;27;87082;-46
2023/01/27 10:05:55;;;;;;;0.40;0.40;;;20.90;39.80;;;;;;5060903;27;87063;-46
2023/01/27 10:08:46;;;;;;;0.33;0.20;;;20.90;39.80;;;;;;5060450;27;88174;-45
2023/01/27 10:11:18;;;;;;;2.33;0.57;;;20.90;39.80;;;;;;5059538;27;87405;-45
2023/01/27 10:13:54;;;;;;;0.23;0.23;;;20.90;39.70;;;;;;5060679;27;87031;-46
2023/01/27 10:16:33;;;;;;;0.20;0.20;;;20.90;39.70;;;;;;5060967;27;87108;-47
2023/01/27 10:19:13;;;;;;;0.30;0.30;;;20.60;39.50;;;;;;5060874;27;87075;-45
2023/01/27 10:21:46;;;;;;;0.20;0.20;;;20.80;39.60;;;;;;5060664;27;89273;-48
2023/01/27 10:24:19;;;;;;;0.30;0.30;;;20.80;39.60;;;;;;5061002;27;86968;-45
2023/01/27 10:26:49;;;;;;;0.63;0.40;;;20.80;39.60;;;;;;5061154;27;86325;-45
2023/01/27 10:29:23;;;;;;;0.30;0.30;;;20.80;39.60;;;;;;5060374;27;89294;-45
2023/01/27 10:31:54;;;;;;;0.20;0.20;;;20.80;39.60;;;;;;5060118;27;87862;-45
2023/01/27 10:34:27;;;;;;;1.03;0.70;;;20.80;39.60;;;;;;5060346;27;87978;-46
2023/01/27 10:37:03;;;;;;;0.20;0.20;;;20.80;39.60;;;;;;5060640;27;87016;-46
2023/01/27 10:39:35;;;;;;;0.30;0.30;;;20.80;39.60;;;;;;5060608;27;88228;-46
2023/01/27 10:42:07;;;;;;;0.40;0.40;;;20.80;39.60;;;;;;5060186;27;87033;-46
2023/01/27 10:44:46;;;;;;;0.20;0.20;;;20.80;39.60;;;;;;5060899;27;87007;-46
2023/01/27 10:47:19;;;;;;;0.40;0.40;;;20.80;39.60;;;;;;5060447;27;87027;-46
2023/01/27 10:49:50;;;;;;;0.20;0.20;;;20.80;39.50;;;;;;5060237;27;89200;-46
2023/01/27 10:52:20;;;;;;;2.47;0.17;;;20.80;39.50;;;;;;5060610;27;88129;-45
2023/01/27 10:54:51;;;;;;;0.30;0.30;;;20.80;39.50;;;;;;5060562;27;86900;-46
2023/01/27 10:57:20;;;;;;;0.10;0.10;;;20.70;39.40;;;;;;5060263;27;87090;-46
2023/01/27 10:59:51;;;;;;;0.50;0.50;;;20.70;39.40;;;;;;5059639;27;90111;-46
2023/01/27 11:02:40;;;;;;;0.37;0.37;;;20.70;40.10;;;;;;5059615;27;91001;-46
2023/01/27 11:05:09;;;;;;;0.30;0.30;;;20.70;39.40;;;;;;5059576;27;87028;-46
2023/01/27 11:07:43;;;;;;;0.30;0.30;;;20.70;39.40;;;;;;5059756;27;87039;-46
2023/01/27 11:10:16;;;;;;;0.40;0.40;;;20.70;39.40;;;;;;5059850;27;87942;-45
2023/01/27 11:12:46;;;;;;;0.20;0.20;;;20.70;39.40;;;;;;5059663;27;88812;-47
2023/01/27 11:15:17;;;;;;;0.20;0.20;;;20.70;39.30;;;;;;5060045;27;87069;-45
2023/01/27 11:17:47;;;;;;;0.73;0.23;;;20.70;39.30;;;;;;5060415;27;86270;-47
2023/01/27 11:20:24;;;;;;;0.40;0.40;;;20.70;39.30;;;;;;5059370;27;88226;-45
2023/01/27 11:22:56;;;;;;;0.40;0.40;;;20.70;39.40;;;;;;5063083;27;89129;-46
2023/01/27 11:25:26;;;;;;;0.23;0.23;;;20.60;39.30;;;;;;5062941;27;88088;-46
2023/01/27 11:28:00;;;;;;;0.30;0.30;;;20.60;39.30;;;;;;5063700;27;87131;-46
2023/01/27 11:30:33;;;;;;;0.47;0.30;;;20.60;39.30;;;;;;5063519;27;88998;-46
2023/01/27 11:33:03;;;;;;;0.30;0.30;;;20.60;39.30;;;;;;5063252;27;87582;-46
2023/01/27 11:35:31;;;;;;;0.30;0.30;;;20.60;39.30;;;;;;5063794;27;87007;-46
2023/01/27 11:38:01;;;;;;;0.40;0.40;;;20.60;39.30;;;;;;5063720;27;87042;-46
2023/01/27 11:40:42;;;;;;;0.10;0.10;;;20.60;39.30;;;;;;5062518;27;88079;-46
2023/01/27 11:43:11;;;;;;;0.33;0.33;;;20.60;39.30;;;;;;5063291;27;87921;-46
2023/01/27 11:45:39;;;;;;;0.30;0.30;;;20.60;39.30;;;;;;5063714;27;87007;-46
2023/01/27 11:48:08;;;;;;;0.70;0.60;;;20.60;39.30;;;;;;5063118;27;87054;-46
2023/01/27 11:50:36;;;;;;;0.83;0.47;;;20.60;39.30;;;;;;5062683;27;90151;-46
2023/01/27 11:53:14;;;;;;;0.20;0.20;;;20.60;39.30;;;;;;5063222;27;87494;-46
2023/01/27 11:55:43;;;;;;;0.30;0.30;;;20.50;39.20;;;;;;5063014;27;86992;-46
2023/01/27 11:58:15;;;;;;;0.63;0.40;;;20.50;39.20;;;;;;5063280;27;86911;-45
2023/01/27 12:00:45;;;;;;;0.23;0.23;;;20.50;39.20;;;;;;5063087;27;88265;-45
2023/01/27 12:03:16;;;;;;;0.30;0.30;;;20.50;39.20;;;;;;5062913;27;87962;-45
2023/01/27 12:05:46;;;;;;;0.20;0.20;;;20.50;39.20;;;;;;5062953;27;87165;-47
2023/01/27 12:08:34;;;;;;;0.33;0.33;;;20.50;39.20;;;;;;5062897;27;86312;-47
2023/01/27 12:11:16;;;;;;;0.50;0.50;;;20.50;39.20;;;;;;5062521;27;89138;-47
2023/01/27 12:13:48;;;;;;;1.17;0.73;;;20.50;39.20;;;;;;5062702;27;88899;-47
2023/01/27 12:16:17;;;;;;;0.97;0.70;;;20.50;39.20;;;;;;5062856;27;87921;-48
2023/01/27 12:19:00;;;;;;;0.87;0.60;;;20.40;39.20;;;;;;5062832;27;87096;-47
2023/01/27 12:21:39;;;;;;;1.47;0.50;;;20.40;39.20;;;;;;5062613;27;89444;-47
2023/01/27 12:24:17;;;;;;;0.50;0.50;;;20.40;39.20;;;;;;5062589;27;87720;-48
2023/01/27 12:26:45;;;;;;;0.73;0.60;;;20.40;39.20;;;;;;5062868;27;87071;-48
2023/01/27 12:29:17;;;;;;;0.40;0.40;;;20.40;39.20;;;;;;5061915;27;87101;-45
2023/01/27 12:31:47;;;;;;;0.47;0.47;;;20.40;39.20;;;;;;5062272;27;89134;-47
2023/01/27 12:34:23;;;;;;;0.57;0.50;;;20.30;39.20;;;;;;5061903;27;88021;-47
2023/01/27 12:36:51;;;;;;;0.67;0.67;;;20.40;39.20;;;;;;5062467;27;87035;-47
2023/01/27 12:39:40;;;;;;;0.90;0.90;;;20.40;39.20;;;;;;5062505;27;87040;-47
2023/01/27 12:42:38;;;;;;;0.50;0.50;;;20.30;39.10;;;;;;5061062;27;89166;-47
2023/01/27 12:45:21;;;;;;;0.60;0.60;;;20.40;39.20;;;;;;5062196;27;89983;-47
2023/01/27 12:47:59;;;;;;;0.60;0.60;;;20.40;39.20;;;;;;5062315;27;86924;-48
2023/01/27 12:50:28;;;;;;;0.80;0.70;;;20.30;39.80;;;;;;5062140;27;87029;-47
2023/01/27 12:53:09;;;;;;;0.80;0.60;;;20.30;39.10;;;;;;5062103;27;89111;-47
2023/01/27 12:55:39;;;;;;;0.87;0.70;;;20.30;39.10;;;;;;5061649;27;88878;-47
2023/01/27 12:58:30;;;;;;;0.40;0.40;;;20.30;39.10;;;;;;5062129;27;87098;-47
2023/01/27 13:00:58;;;;;;;0.63;0.40;;;20.30;39.20;;;;;;5062050;27;86337;-47
2023/01/27 13:03:27;;;;;;;0.47;0.37;;;20.30;39.10;;;;;;5061413;27;87920;-47
2023/01/27 13:05:55;;;;;;;0.50;0.50;;;20.30;39.20;;;;;;5062133;27;87802;-45
2023/01/27 13:08:23;;;;;;;1.23;0.70;;;20.30;39.10;;;;;;5062045;27;88031;-47
2023/01/27 13:10:54;;;;;;;0.43;0.43;;;20.20;39.10;;;;;;5061507;27;87007;-46
2023/01/27 13:13:24;;;;;;;0.70;0.43;;;20.20;39.10;;;;;;5062010;27;87924;-47
2023/01/27 13:15:53;;;;;;;0.30;0.30;;;20.20;39.10;;;;;;5060481;27;88830;-47
2023/01/27 13:18:21;;;;;;;0.43;0.43;;;20.20;39.10;;;;;;5061345;27;87142;-48
2023/01/27 13:20:51;;;;;;;0.60;0.60;;;20.20;39.10;;;;;;5061461;27;86961;-48
2023/01/27 13:23:20;;;;;;;0.60;0.60;;;20.20;39.10;;;;;;5061198;27;87029;-45
2023/01/27 13:25:52;;;;;;;0.40;0.33;;;20.20;39.10;;;;;;5061756;27;88815;-46